Time;durP1;ratioP1;P1;durP2;ratioP2;P2;SDS_P1;SDS_P2;PMS_P1;PMS_P2;Temp;Humidity;BMP_temperature;BMP_pressure;BME280_temperature;BME280_humidity;BME280_pressure;Samples;Min_cycle;Max_cycle;Signal;HPM_P1;HPM_P2
2023/11/16 00:00:59;;;;;;;8.50;7.60;;;;;;;8.52;100.00;99108.21;88553;274;136537;-73
2023/11/16 00:03:03;;;;;;;7.80;7.00;;;;;;;8.52;100.00;99114.38;88481;273;22531;-72
2023/11/16 00:05:06;;;;;;;9.30;8.40;;;;;;;8.53;100.00;99113.98;88837;280;137349;-72
2023/11/16 00:07:10;;;;;;;8.30;7.40;;;;;;;8.53;100.00;99113.98;88673;277;22533;-72
2023/11/16 00:09:12;;;;;;;8.40;7.10;;;;;;;8.54;100.00;99113.33;88538;278;136754;-73
2023/11/16 00:11:15;;;;;;;10.50;6.90;;;;;;;8.55;100.00;99114.21;88689;279;22598;-74
2023/11/16 00:13:18;;;;;;;7.40;6.70;;;;;;;8.54;100.00;99115.23;88420;280;136832;-73
2023/11/16 00:15:20;;;;;;;6.90;6.30;;;;;;;8.52;100.00;99114.84;88533;280;24141;-74
2023/11/16 00:17:24;;;;;;;9.20;8.00;;;;;;;8.51;100.00;99118.31;88469;277;136917;-72
2023/11/16 00:19:27;;;;;;;7.60;7.00;;;;;;;8.51;100.00;99117.23;88678;280;22523;-72
2023/11/16 00:21:30;;;;;;;7.60;6.90;;;;;;;8.50;100.00;99115.73;88436;280;136774;-72
2023/11/16 00:23:32;;;;;;;10.30;7.40;;;;;;;8.50;100.00;99112.27;88587;281;22531;-74
2023/11/16 00:25:34;;;;;;;9.80;6.90;;;;;;;8.49;100.00;99112.51;88518;280;137127;-74
2023/11/16 00:27:36;;;;;;;8.10;7.20;;;;;;;8.49;100.00;99112.22;88682;280;22532;-75
2023/11/16 00:29:39;;;;;;;8.00;7.20;;;;;;;8.48;100.00;99111.11;88396;279;136404;-73
2023/11/16 00:31:41;;;;;;;8.10;7.40;;;;;;;8.48;100.00;99107.94;88496;275;22537;-72
2023/11/16 00:33:44;;;;;;;8.00;7.30;;;;;;;8.45;100.00;99104.95;88489;280;136704;-75
2023/11/16 00:35:49;;;;;;;8.60;7.00;;;;;;;8.42;100.00;99110.80;88611;280;25159;-73
2023/11/16 00:37:52;;;;;;;8.00;7.10;;;;;;;8.41;100.00;99110.93;88459;281;136693;-74
2023/11/16 00:39:57;;;;;;;7.60;6.70;;;;;;;8.39;100.00;99108.64;88698;280;24058;-74
2023/11/16 00:42:00;;;;;;;9.10;7.80;;;;;;;8.29;100.00;99095.45;88496;280;136825;-73
2023/11/16 00:44:05;;;;;;;7.50;6.70;;;;;;;8.35;100.00;99105.77;88532;280;137256;-71
2023/11/16 00:46:08;;;;;;;7.40;6.70;;;;;;;8.35;100.00;99108.67;88659;281;24011;-75
2023/11/16 00:48:11;;;;;;;9.00;7.50;;;;;;;8.35;100.00;99109.25;88620;277;137231;-73
2023/11/16 00:50:14;;;;;;;7.60;6.80;;;;;;;8.35;100.00;99113.17;88624;280;22535;-74
2023/11/16 00:52:19;;;;;;;8.50;7.60;;;;;;;8.35;100.00;99115.74;88469;280;138084;-76
2023/11/16 00:54:22;;;;;;;7.80;6.90;;;;;;;8.37;100.00;99117.86;88626;281;22539;-75
2023/11/16 00:56:24;;;;;;;8.50;6.50;;;;;;;8.38;100.00;99120.23;88534;280;136763;-73
2023/11/16 00:58:26;;;;;;;9.40;6.80;;;;;;;8.41;100.00;99121.23;88584;282;22536;-77
2023/11/16 01:00:31;;;;;;;7.20;6.60;;;;;;;8.41;100.00;99122.94;88540;280;136606;-74
2023/11/16 01:02:34;;;;;;;8.60;6.50;;;;;;;8.41;100.00;99120.29;88666;280;22555;-77
2023/11/16 01:04:38;;;;;;;10.10;7.20;;;;;;;8.41;100.00;99120.81;88555;282;136595;-72
2023/11/16 01:06:42;;;;;;;7.70;7.00;;;;;;;8.42;100.00;99125.33;88562;280;22596;-76
2023/11/16 01:08:45;;;;;;;9.10;8.20;;;;;;;8.43;100.00;99129.17;88545;280;136878;-74
2023/11/16 01:10:49;;;;;;;7.60;6.90;;;;;;;8.44;100.00;99131.34;88582;280;23497;-73
2023/11/16 01:12:53;;;;;;;11.20;8.20;;;;;;;8.46;100.00;99130.20;88548;276;135781;-75
2023/11/16 01:14:59;;;;;;;7.00;6.40;;;;;;;8.47;100.00;99130.00;88611;280;22534;-75
2023/11/16 01:17:07;;;;;;;9.10;7.40;;;;;;;8.48;100.00;99129.34;88218;281;520616;-69
2023/11/16 01:19:12;;;;;;;7.90;7.10;;;;;;;8.48;100.00;99132.90;88666;280;25110;-72
2023/11/16 01:21:15;;;;;;;7.60;6.80;;;;;;;8.50;100.00;99139.92;88559;277;137010;-73
2023/11/16 01:23:17;;;;;;;8.60;7.60;;;;;;;8.49;100.00;99138.52;88737;280;23952;-70
2023/11/16 01:25:21;;;;;;;9.20;7.80;;;;;;;8.50;100.00;99137.40;88689;279;138162;-70
2023/11/16 01:27:26;;;;;;;8.20;7.40;;;;;;;8.50;100.00;99138.41;88794;280;22533;-71
2023/11/16 01:29:30;;;;;;;8.40;7.40;;;;;;;8.49;100.00;99138.70;88519;281;138282;-71
2023/11/16 01:31:32;;;;;;;7.90;7.20;;;;;;;8.48;100.00;99137.77;88623;281;25121;-69
2023/11/16 01:33:34;;;;;;;10.90;8.80;;;;;;;8.50;100.00;99137.20;88551;280;136909;-72
2023/11/16 01:35:44;;;;;;;7.90;7.30;;;;;;;8.51;100.00;99136.56;88590;273;22616;-73
2023/11/16 01:37:46;;;;;;;7.20;6.60;;;;;;;8.50;100.00;99136.00;88604;272;136608;-73
2023/11/16 01:39:48;;;;;;;8.30;7.00;;;;;;;8.48;100.00;99135.92;88664;280;23358;-72
2023/11/16 01:41:50;;;;;;;7.30;6.60;;;;;;;8.49;100.00;99136.48;88503;280;137747;-71
2023/11/16 01:43:52;;;;;;;7.90;7.20;;;;;;;8.47;100.00;99135.27;88563;281;23394;-74
2023/11/16 01:45:56;;;;;;;8.80;7.60;;;;;;;8.48;100.00;99138.70;88473;280;138272;-74
2023/11/16 01:48:06;;;;;;;7.20;6.50;;;;;;;8.49;100.00;99135.95;88682;280;22544;-72
2023/11/16 01:50:09;;;;;;;9.60;8.60;;;;;;;8.47;100.00;99135.83;88663;277;24014;-76
2023/11/16 01:52:13;;;;;;;7.70;7.00;;;;;;;8.45;100.00;99131.66;88494;281;136892;-70
2023/11/16 01:54:17;;;;;;;9.20;7.90;;;;;;;8.44;100.00;99129.86;88655;273;22961;-74
2023/11/16 01:56:20;;;;;;;9.60;7.60;;;;;;;8.44;100.00;99129.87;88595;273;136989;-72
2023/11/16 01:58:23;;;;;;;8.30;6.70;;;;;;;8.44;100.00;99129.10;88662;281;25176;-72
2023/11/16 02:00:26;;;;;;;9.30;6.60;;;;;;;8.44;100.00;99130.52;88515;277;138272;-71
2023/11/16 02:02:29;;;;;;;7.50;6.80;;;;;;;8.43;100.00;99129.98;88656;277;22559;-73
2023/11/16 02:04:34;;;;;;;7.90;7.00;;;;;;;8.43;100.00;99128.97;88648;277;138000;-72
2023/11/16 02:06:40;;;;;;;7.30;6.70;;;;;;;8.44;100.00;99126.55;88684;273;22738;-76
2023/11/16 02:08:42;;;;;;;8.00;7.20;;;;;;;8.44;100.00;99126.14;88602;273;136786;-77
2023/11/16 02:10:44;;;;;;;7.70;6.90;;;;;;;8.42;100.00;99127.98;88641;280;24020;-71
2023/11/16 02:12:52;;;;;;;12.10;7.10;;;;;;;8.43;100.00;99129.83;88585;280;137625;-74
2023/11/16 02:14:55;;;;;;;8.50;7.70;;;;;;;8.43;100.00;99129.66;88701;273;22627;-73
2023/11/16 02:16:57;;;;;;;9.10;7.60;;;;;;;8.43;100.00;99132.11;88516;273;136982;-75
2023/11/16 02:19:10;;;;;;;7.90;7.20;;;;;;;8.42;100.00;99137.91;88719;273;24049;-75
2023/11/16 02:21:12;;;;;;;7.70;7.00;;;;;;;8.40;100.00;99138.34;88425;278;138516;-74
2023/11/16 02:23:15;;;;;;;7.40;6.70;;;;;;;8.38;100.00;99141.40;88699;277;24015;-71
2023/11/16 02:25:18;;;;;;;8.10;6.80;;;;;;;8.36;100.00;99143.73;88510;278;137371;-72
2023/11/16 02:27:21;;;;;;;8.00;7.20;;;;;;;8.37;100.00;99145.11;88860;278;22529;-73
2023/11/16 02:29:24;;;;;;;7.30;6.50;;;;;;;8.35;100.00;99147.60;88496;277;136683;-72
2023/11/16 02:31:26;;;;;;;8.60;6.80;;;;;;;8.36;100.00;99147.97;88678;282;25287;-70
2023/11/16 02:33:39;;;;;;;7.00;6.30;;;;;;;8.39;100.00;99150.23;88499;273;136393;-74
2023/11/16 02:35:41;;;;;;;6.50;5.90;;;;;;;8.42;100.00;99148.49;88652;273;22539;-73
2023/11/16 02:37:43;;;;;;;6.60;6.00;;;;;;;8.43;100.00;99149.44;88521;280;137786;-73
2023/11/16 02:39:45;;;;;;;7.00;5.80;;;;;;;8.44;100.00;99149.02;88700;272;25080;-71
2023/11/16 02:41:48;;;;;;;9.00;6.20;;;;;;;8.45;100.00;99153.85;88440;280;136887;-74
2023/11/16 02:43:50;;;;;;;7.20;6.50;;;;;;;8.46;100.00;99156.99;88612;273;25168;-72
2023/11/16 02:45:53;;;;;;;6.60;6.00;;;;;;;8.48;100.00;99157.06;88493;273;136773;-72
2023/11/16 02:47:55;;;;;;;5.80;5.30;;;;;;;8.49;100.00;99162.30;88648;278;22534;-70
2023/11/16 02:49:59;;;;;;;5.90;5.40;;;;;;;8.47;100.00;99162.55;88611;276;136900;-75
2023/11/16 02:52:02;;;;;;;6.00;5.10;;;;;;;8.47;100.00;99165.09;88624;279;22523;-72
2023/11/16 02:54:06;;;;;;;6.10;5.00;;;;;;;8.44;100.00;99160.27;88485;278;25174;-71
2023/11/16 02:56:11;;;;;;;6.10;5.50;;;;;;;8.44;100.00;99161.08;88183;273;138198;-71
2023/11/16 02:58:13;;;;;;;5.00;4.70;;;;;;;8.43;100.00;99163.23;88569;281;22563;-71
2023/11/16 03:00:15;;;;;;;7.40;5.10;;;;;;;8.45;100.00;99161.45;88475;280;137016;-73
2023/11/16 03:02:18;;;;;;;5.50;4.80;;;;;;;8.47;100.00;99166.15;88639;281;24072;-72
2023/11/16 03:04:20;;;;;;;5.70;5.20;;;;;;;8.48;100.00;99165.10;88536;281;137044;-73
2023/11/16 03:06:22;;;;;;;4.70;4.40;;;;;;;8.49;100.00;99167.63;88609;273;22530;-72
2023/11/16 03:08:24;;;;;;;6.30;4.10;;;;;;;8.50;100.00;99169.26;88602;273;136612;-71
2023/11/16 03:10:29;;;;;;;5.00;4.50;;;;;;;8.35;100.00;99146.77;88495;277;24235;-73
2023/11/16 03:12:32;;;;;;;5.00;4.50;;;;;;;8.50;100.00;99172.13;88438;273;136648;-72
2023/11/16 03:14:36;;;;;;;4.90;4.40;;;;;;;8.51;100.00;99174.48;88680;280;22533;-75
2023/11/16 03:16:47;;;;;;;4.90;4.50;;;;;;;8.52;100.00;99174.85;88494;281;136672;-74
2023/11/16 03:18:50;;;;;;;6.50;4.20;;;;;;;8.53;100.00;99174.36;88636;273;22537;-69
2023/11/16 03:20:52;;;;;;;6.00;4.70;;;;;;;8.51;100.00;99178.00;88486;281;136789;-73
2023/11/16 03:22:55;;;;;;;4.70;4.40;;;;;;;8.53;100.00;99182.54;88625;272;24027;-73
2023/11/16 03:24:57;;;;;;;7.40;4.70;;;;;;;8.55;100.00;99184.13;88516;273;136491;-72
2023/11/16 03:26:59;;;;;;;4.80;4.40;;;;;;;8.55;100.00;99186.98;88554;274;22911;-70
2023/11/16 03:29:01;;;;;;;4.60;4.20;;;;;;;8.52;100.00;99191.49;88493;281;136626;-68
2023/11/16 03:31:05;;;;;;;4.40;4.00;;;;;;;8.49;100.00;99189.56;88808;273;24684;-69
2023/11/16 03:33:12;;;;;;;5.50;4.50;;;;;;;8.48;100.00;99186.50;88660;277;136977;-68
2023/11/16 03:35:15;;;;;;;3.90;3.60;;;;;;;8.49;100.00;99186.04;88572;278;25121;-69
2023/11/16 03:37:20;;;;;;;4.90;4.50;;;;;;;8.49;100.00;99188.88;88534;272;138060;-71
2023/11/16 03:39:22;;;;;;;5.00;4.50;;;;;;;8.48;100.00;99187.35;88574;273;22563;-70
2023/11/16 03:41:25;;;;;;;8.20;4.30;;;;;;;8.47;100.00;99182.20;88355;273;138229;-69
2023/11/16 03:43:28;;;;;;;4.00;3.60;;;;;;;8.48;100.00;99182.21;88658;273;26161;-70
2023/11/16 03:45:29;;;;;;;4.00;3.70;;;;;;;8.48;100.00;99181.35;88442;281;137054;-72
2023/11/16 03:47:32;;;;;;;6.70;4.10;;;;;;;8.47;100.00;99177.92;88489;274;24040;-72
2023/11/16 03:49:34;;;;;;;4.40;4.00;;;;;;;8.46;100.00;99185.06;88660;272;136722;-73
2023/11/16 03:51:36;;;;;;;5.50;4.80;;;;;;;8.45;100.00;99185.35;88523;280;25213;-72
2023/11/16 03:53:38;;;;;;;6.10;4.50;;;;;;;8.43;100.00;99187.39;88533;280;137034;-72
2023/11/16 03:55:40;;;;;;;3.70;3.40;;;;;;;8.41;100.00;99187.24;88518;280;22647;-74
2023/11/16 03:57:42;;;;;;;5.50;4.50;;;;;;;8.38;100.00;99186.88;88480;273;137549;-71
2023/11/16 03:59:44;;;;;;;4.40;4.10;;;;;;;8.37;100.00;99186.29;88629;279;22553;-70
2023/11/16 04:01:46;;;;;;;5.20;4.50;;;;;;;8.34;100.00;99187.55;88460;273;137800;-72
2023/11/16 04:03:50;;;;;;;5.70;5.20;;;;;;;8.32;100.00;99189.83;88551;278;25393;-71
2023/11/16 04:05:52;;;;;;;6.60;4.80;;;;;;;8.30;100.00;99192.04;88442;280;136822;-72
2023/11/16 04:07:55;;;;;;;4.90;4.40;;;;;;;8.30;100.00;99195.27;88638;280;22534;-73
2023/11/16 04:09:57;;;;;;;4.50;4.00;;;;;;;8.30;100.00;99197.55;88529;282;137503;-73
2023/11/16 04:12:00;;;;;;;4.60;4.20;;;;;;;8.28;100.00;99199.63;88589;281;22532;-74
2023/11/16 04:14:02;;;;;;;5.20;4.80;;;;;;;8.27;100.00;99199.53;88591;276;136770;-69
2023/11/16 04:16:07;;;;;;;4.00;3.60;;;;;;;8.27;100.00;99203.59;88537;273;137164;-72
2023/11/16 04:18:10;;;;;;;3.90;3.50;;;;;;;8.28;100.00;99203.23;88581;274;22753;-70
2023/11/16 04:20:12;;;;;;;4.70;4.40;;;;;;;8.30;100.00;99206.70;88562;280;137016;-68
2023/11/16 04:22:16;;;;;;;4.00;3.70;;;;;;;8.29;100.00;99207.36;88677;278;24054;-69
2023/11/16 04:24:19;;;;;;;4.50;4.20;;;;;;;8.29;100.00;99211.11;88429;282;136703;-70
2023/11/16 04:26:24;;;;;;;4.70;4.20;;;;;;;8.28;100.00;99208.98;88573;280;23754;-70
2023/11/16 04:28:29;;;;;;;5.30;4.40;;;;;;;8.27;100.00;99207.80;88474;281;136597;-71
2023/11/16 04:30:32;;;;;;;5.30;4.80;;;;;;;8.25;100.00;99210.33;88576;280;22540;-72
2023/11/16 04:32:34;;;;;;;4.60;3.90;;;;;;;8.25;100.00;99210.90;88468;280;136836;-72
2023/11/16 04:34:36;;;;;;;6.20;3.00;;;;;;;8.26;100.00;99211.84;88583;276;24030;-73
2023/11/16 04:36:41;;;;;;;4.10;3.80;;;;;;;8.27;100.00;99210.09;88475;280;136514;-71
2023/11/16 04:38:47;;;;;;;3.80;3.40;;;;;;;8.28;100.00;99208.00;88614;280;24014;-72
2023/11/16 04:40:49;;;;;;;7.00;6.30;;;;;;;8.28;100.00;99209.02;88519;280;136570;-70
2023/11/16 04:42:51;;;;;;;6.50;6.00;;;;;;;8.27;100.00;99217.20;88667;280;22599;-71
2023/11/16 04:44:55;;;;;;;6.00;5.30;;;;;;;8.25;100.00;99219.22;88537;280;139326;-72
2023/11/16 04:46:57;;;;;;;6.70;6.10;;;;;;;8.24;100.00;99219.02;88610;279;25121;-72
2023/11/16 04:49:01;;;;;;;6.90;6.20;;;;;;;8.23;100.00;99222.52;88515;280;136524;-70
2023/11/16 04:51:04;;;;;;;5.40;4.90;;;;;;;8.22;100.00;99221.02;88762;280;22998;-70
2023/11/16 04:53:07;;;;;;;4.80;4.40;;;;;;;8.21;100.00;99218.52;88580;280;136536;-72
2023/11/16 04:55:10;;;;;;;4.10;3.80;;;;;;;8.12;100.00;99210.66;88530;273;25242;-70
2023/11/16 04:57:15;;;;;;;4.40;4.00;;;;;;;8.21;100.00;99221.71;88428;277;136343;-72
2023/11/16 04:59:17;;;;;;;7.10;6.50;;;;;;;8.22;100.00;99226.65;88525;279;25191;-74
2023/11/16 05:01:22;;;;;;;5.80;5.30;;;;;;;8.21;100.00;99225.75;88254;273;136762;-72
2023/11/16 05:03:25;;;;;;;5.50;4.80;;;;;;;8.19;100.00;99230.02;88616;273;22531;-73
2023/11/16 05:05:27;;;;;;;4.60;4.30;;;;;;;8.18;100.00;99230.33;88301;273;138049;-78
2023/11/16 05:07:30;;;;;;;5.10;4.70;;;;;;;8.17;100.00;99233.34;88947;273;23950;-81
2023/11/16 05:09:32;;;;;;;5.70;5.10;;;;;;;8.16;100.00;99233.00;88423;280;137560;-78
2023/11/16 05:11:35;;;;;;;4.70;4.30;;;;;;;8.17;100.00;99235.86;88676;272;24053;-80
2023/11/16 05:13:37;;;;;;;4.80;4.40;;;;;;;8.18;100.00;99238.73;88246;274;136951;-76
2023/11/16 05:15:41;;;;;;;6.50;5.70;;;;;;;8.19;100.00;99239.31;88449;273;22539;-80
2023/11/16 05:19:11;;;;;;;6.30;5.70;;;;;;;8.17;100.00;99239.17;87059;304;603822;-77
2023/11/16 05:21:13;;;;;;;5.50;4.80;;;;;;;8.18;100.00;99242.81;89771;279;136018;-78
2023/11/16 05:23:19;;;;;;;5.40;4.70;;;;;;;8.20;100.00;99247.80;88397;282;26190;-79
2023/11/16 05:25:21;;;;;;;4.40;4.00;;;;;;;8.21;100.00;99248.89;88656;288;135602;-76
2023/11/16 05:27:27;;;;;;;7.20;4.90;;;;;;;8.18;100.00;99252.86;88909;286;22536;-77
2023/11/16 05:29:29;;;;;;;5.80;5.30;;;;;;;8.15;100.00;99255.25;88792;285;135683;-77
2023/11/16 05:31:32;;;;;;;5.50;5.00;;;;;;;8.13;100.00;99257.98;88917;282;22567;-81
2023/11/16 05:33:34;;;;;;;5.50;4.80;;;;;;;8.12;100.00;99257.66;88379;277;512424;-72
2023/11/16 05:35:38;;;;;;;4.70;4.30;;;;;;;8.03;100.00;99249.30;88543;281;23018;-76
2023/11/16 05:37:41;;;;;;;6.70;6.10;;;;;;;8.13;100.00;99264.94;88575;285;135944;-73
2023/11/16 05:39:43;;;;;;;6.50;5.80;;;;;;;8.13;100.00;99269.66;88375;277;24263;-75
2023/11/16 05:41:46;;;;;;;5.10;4.60;;;;;;;8.10;100.00;99272.99;88807;276;136242;-76
2023/11/16 05:43:48;;;;;;;4.00;3.70;;;;;;;8.09;100.00;99276.84;88619;276;25125;-72
2023/11/16 05:45:50;;;;;;;4.00;3.60;;;;;;;8.09;100.00;99275.77;88634;277;136163;-77
2023/11/16 05:47:52;;;;;;;4.20;3.80;;;;;;;8.08;100.00;99275.28;88725;280;23440;-77
2023/11/16 05:49:54;;;;;;;5.10;3.00;;;;;;;8.06;100.00;99283.08;88937;277;136097;-79
2023/11/16 05:51:56;;;;;;;3.80;3.40;;;;;;;8.03;100.00;99285.95;89148;284;23100;-78
2023/11/16 05:53:59;;;;;;;3.20;2.90;;;;;;;8.02;100.00;99273.58;88790;276;136260;-79
2023/11/16 05:56:01;;;;;;;3.00;2.30;;;;;;;8.02;100.00;99284.48;91453;280;22361;-77
2023/11/16 05:58:06;;;;;;;2.60;2.10;;;;;;;8.03;100.00;99284.70;91446;280;22397;-80
2023/11/16 06:00:11;;;;;;;2.00;1.90;;;;;;;8.05;100.00;99283.93;90476;280;136381;-80
2023/11/16 06:02:14;;;;;;;2.40;1.80;;;;;;;8.06;100.00;99287.16;91383;280;22438;-79
2023/11/16 06:04:16;;;;;;;1.80;1.70;;;;;;;8.06;100.00;99286.33;91121;280;136384;-77
2023/11/16 06:06:18;;;;;;;1.20;1.10;;;;;;;7.86;100.00;99263.95;88702;273;24014;-76
2023/11/16 06:08:21;;;;;;;1.30;1.20;;;;;;;8.02;100.00;99292.97;88701;276;136237;-75
2023/11/16 06:10:22;;;;;;;1.40;1.30;;;;;;;8.02;100.00;99292.86;88337;276;22553;-78
2023/11/16 06:12:28;;;;;;;1.50;1.40;;;;;;;7.99;100.00;99291.21;88755;276;137137;-76
2023/11/16 06:14:32;;;;;;;3.10;1.40;;;;;;;7.89;100.00;99286.27;88908;277;23485;-81
2023/11/16 06:16:47;;;;;;;2.10;1.50;;;;;;;7.90;100.00;99296.39;88924;272;136135;-73
2023/11/16 06:18:50;;;;;;;1.00;0.90;;;;;;;7.88;100.00;99302.30;89125;272;24090;-72
2023/11/16 06:20:53;;;;;;;1.90;1.00;;;;;;;7.76;100.00;99289.77;88390;274;136458;-77
2023/11/16 06:22:55;;;;;;;1.60;1.30;;;;;;;7.83;100.00;99307.05;88866;274;22545;-69
2023/11/16 06:24:59;;;;;;;0.90;0.60;;;;;;;7.79;100.00;99309.68;88222;274;136497;-70
2023/11/16 06:27:04;;;;;;;7.00;0.80;;;;;;;7.77;100.00;99311.51;88519;277;22539;-73
2023/11/16 06:29:06;;;;;;;1.10;0.50;;;;;;;7.76;100.00;99315.41;89057;273;136519;-72
2023/11/16 06:31:08;;;;;;;0.60;0.60;;;;;;;7.72;100.00;99318.73;88791;273;22531;-69
2023/11/16 06:33:10;;;;;;;1.80;0.80;;;;;;;7.68;100.00;99314.80;88263;280;136196;-71
2023/11/16 06:35:13;;;;;;;3.00;0.60;;;;;;;7.63;100.00;99320.02;88439;273;24017;-73
2023/11/16 06:37:16;;;;;;;0.80;0.80;;;;;;;7.57;100.00;99319.70;88530;281;136147;-73
2023/11/16 06:39:18;;;;;;;0.70;0.60;;;;;;;7.52;100.00;99323.82;88946;279;22628;-70
2023/11/16 06:41:20;;;;;;;5.50;0.90;;;;;;;7.48;100.00;99321.05;88337;278;137639;-73
2023/11/16 06:43:23;;;;;;;2.10;0.80;;;;;;;7.45;100.00;99321.94;88825;277;24025;-72
2023/11/16 06:45:27;;;;;;;1.30;1.20;;;;;;;7.44;100.00;99321.76;88699;273;136269;-71
2023/11/16 06:47:29;;;;;;;1.40;1.10;;;;;;;7.39;100.00;99320.50;88887;281;22550;-72
2023/11/16 06:49:32;;;;;;;1.30;1.20;;;;;;;7.34;100.00;99321.23;89020;274;136222;-70
2023/11/16 06:51:35;;;;;;;0.60;0.60;;;;;;;7.25;100.00;99324.95;89066;280;22527;-69
2023/11/16 06:53:37;;;;;;;2.40;1.40;;;;;;;7.13;100.00;99323.77;89241;273;136172;-71
2023/11/16 06:55:45;;;;;;;2.10;1.90;;;;;;;7.07;100.00;99322.45;89325;273;25208;-70
2023/11/16 06:57:50;;;;;;;1.30;1.10;;;;;;;7.10;100.00;99338.69;88906;274;136188;-73
2023/11/16 06:59:55;;;;;;;2.10;1.20;;;;;;;7.11;100.00;99342.24;88396;274;26266;-72
2023/11/16 07:01:57;;;;;;;1.50;0.70;;;;;;;7.12;100.00;99341.29;88807;273;136229;-73
2023/11/16 07:03:59;;;;;;;1.00;0.70;;;;;;;7.10;100.00;99341.35;88624;279;22539;-72
2023/11/16 07:06:02;;;;;;;2.30;1.40;;;;;;;7.07;100.00;99344.66;89042;282;136780;-73
2023/11/16 07:08:04;;;;;;;4.50;2.40;;;;;;;7.08;100.00;99344.21;88946;282;137532;-70
2023/11/16 07:10:08;;;;;;;2.60;2.30;;;;;;;7.12;100.00;99338.92;88541;272;23759;-71
2023/11/16 07:12:11;;;;;;;1.30;1.10;;;;;;;7.17;100.00;99342.71;88945;273;136888;-71
2023/11/16 07:14:14;;;;;;;7.60;1.20;;;;;;;7.18;100.00;99340.11;88890;275;25303;-74
2023/11/16 07:16:15;;;;;;;2.50;1.00;;;;;;;7.24;100.00;99343.34;88981;273;137988;-73
2023/11/16 07:18:20;;;;;;;0.70;0.60;;;;;;;7.27;100.00;99345.90;88856;273;22540;-70
2023/11/16 07:20:22;;;;;;;;;;;;;;;7.31;100.00;99349.89;88835;280;137689;-73
2023/11/16 07:22:25;;;;;;;0.80;0.60;;;;;;;7.32;100.00;99348.80;88829;273;25080;-73
2023/11/16 07:24:27;;;;;;;0.60;0.60;;;;;;;7.21;100.00;99334.84;89065;273;137218;-72
2023/11/16 07:26:29;;;;;;;2.70;2.00;;;;;;;7.32;100.00;99352.75;89054;273;22540;-70
2023/11/16 07:28:32;;;;;;;0.30;0.20;;;;;;;7.34;100.00;99352.67;88809;275;137045;-69
2023/11/16 07:30:35;;;;;;;0.40;0.10;;;;;;;7.35;100.00;99353.02;90739;280;24158;-70
2023/11/16 07:32:37;;;;;;;1.00;0.60;;;;;;;7.31;100.00;99351.59;88568;280;136515;-71
2023/11/16 07:34:41;;;;;;;0.40;0.40;;;;;;;7.38;100.00;99362.59;89015;280;22521;-69
2023/11/16 07:36:44;;;;;;;2.00;0.30;;;;;;;7.37;100.00;99363.03;88824;283;136750;-71
2023/11/16 07:38:47;;;;;;;1.30;0.40;;;;;;;7.38;100.00;99368.26;88779;281;22558;-71
2023/11/16 07:40:51;;;;;;;1.00;0.60;;;;;;;7.37;100.00;99366.91;88713;280;136643;-70
2023/11/16 07:42:53;;;;;;;1.20;1.10;;;;;;;7.38;100.00;99370.52;89121;273;23701;-74
2023/11/16 07:44:55;;;;;;;5.00;0.40;;;;;;;7.40;100.00;99367.66;88704;280;137116;-69
2023/11/16 07:46:57;;;;;;;2.10;0.40;;;;;;;7.40;100.00;99375.73;88888;273;22532;-70
2023/11/16 07:49:00;;;;;;;1.10;0.60;;;;;;;7.40;100.00;99380.67;88356;280;136345;-73
2023/11/16 07:51:02;;;;;;;0.40;0.20;;;;;;;7.39;100.00;99384.30;88605;275;22583;-70
2023/11/16 07:53:09;;;;;;;0.20;0.20;;;;;;;7.36;100.00;99390.63;88489;277;137020;-70
2023/11/16 07:55:16;;;;;;;0.40;0.20;;;;;;;7.27;100.00;99393.04;88370;272;24088;-71
2023/11/16 07:57:22;;;;;;;2.50;0.30;;;;;;;7.18;100.00;99394.75;88497;274;136128;-68
2023/11/16 07:59:30;;;;;;;0.30;0.20;;;;;;;7.06;100.00;99401.69;89020;273;24583;-73
2023/11/16 08:01:49;;;;;;;0.50;0.30;;;;;;;6.91;100.00;99395.21;88929;273;137299;-72
2023/11/16 08:03:55;;;;;;;0.80;0.30;;;;;;;6.78;100.00;99401.77;88452;275;22524;-73
2023/11/16 08:05:58;;;;;;;0.40;0.20;;;;;;;6.68;100.00;99410.07;88805;277;136753;-71
2023/11/16 08:08:03;;;;;;;0.70;0.20;;;;;;;6.58;100.00;99411.02;89034;273;25251;-71
2023/11/16 08:10:09;;;;;;;0.50;0.20;;;;;;;6.41;100.00;99404.45;88723;275;22780;-69
2023/11/16 08:12:13;;;;;;;0.30;0.20;;;;;;;6.42;100.00;99421.41;88352;273;136613;-68
2023/11/16 08:14:15;;;;;;;0.40;0.20;;;;;;;6.37;100.00;99429.77;88343;272;23148;-68
2023/11/16 08:16:21;;;;;;;0.20;0.20;;;;;;;6.33;100.00;99430.67;88271;280;136612;-71
2023/11/16 08:18:24;;;;;;;0.30;0.20;;;;;;;6.30;100.00;99436.67;88264;280;22575;-68
2023/11/16 08:20:29;;;;;;;0.70;0.40;;;;;;;6.26;100.00;99441.02;88195;279;137305;-73
2023/11/16 08:22:33;;;;;;;0.30;0.20;;;;;;;6.26;100.00;99448.42;89004;276;22534;-70
2023/11/16 08:24:35;;;;;;;0.20;0.20;;;;;;;6.20;100.00;99442.36;88353;273;136650;-69
2023/11/16 08:26:37;;;;;;;0.70;0.40;;;;;;;6.21;100.00;99452.31;88404;273;22523;-71
2023/11/16 08:28:42;;;;;;;0.60;0.20;;;;;;;6.20;100.00;99450.14;88395;277;136457;-73
2023/11/16 08:30:45;;;;;;;;;;;;;;;6.21;100.00;99448.67;88905;275;25229;-72
2023/11/16 08:32:48;;;;;;;1.20;0.30;;;;;;;6.20;100.00;99461.61;88844;273;124138;-70
2023/11/16 08:34:51;;;;;;;0.60;0.20;;;;;;;6.18;100.00;99464.88;88443;273;26072;-73
2023/11/16 08:36:53;;;;;;;1.20;0.30;;;;;;;6.17;100.00;99464.98;88572;279;136529;-72
2023/11/16 08:38:55;;;;;;;3.80;0.20;;;;;;;6.15;100.00;99467.84;89177;273;25209;-70
2023/11/16 08:40:58;;;;;;;0.30;0.20;;;;;;;6.12;100.00;99469.44;88848;275;136544;-70
2023/11/16 08:43:01;;;;;;;0.30;0.20;;;;;;;6.10;100.00;99466.59;88658;277;22537;-73
2023/11/16 08:45:04;;;;;;;1.10;0.60;;;;;;;6.09;100.00;99465.43;89032;273;136297;-71
2023/11/16 08:47:14;;;;;;;0.80;0.20;;;;;;;6.08;100.00;99471.40;88848;275;22672;-71
2023/11/16 08:49:17;;;;;;;0.30;0.20;;;;;;;6.06;100.00;99474.55;88775;276;137000;-70
2023/11/16 08:51:23;;;;;;;0.60;0.30;;;;;;;6.04;100.00;99477.04;88986;276;22547;-71
2023/11/16 08:53:30;;;;;;;2.60;1.00;;;;;;;6.02;100.00;99474.66;88745;275;137319;-72
2023/11/16 08:55:33;;;;;;;0.40;0.20;;;;;;;5.97;100.00;99480.14;88844;280;22552;-74
2023/11/16 08:57:35;;;;;;;2.20;0.30;;;;;;;5.90;100.00;99478.55;88791;273;138152;-74
2023/11/16 08:59:58;;;;;;;2.30;2.00;;;;;;;5.83;100.00;99483.19;88974;279;22548;-70
2023/11/16 09:01:59;;;;;;;0.70;0.40;;;;;;;5.79;100.00;99494.04;88926;272;137521;-73
2023/11/16 09:04:02;;;;;;;2.80;1.80;;;;;;;5.77;100.00;99493.25;88959;274;22861;-75
2023/11/16 09:06:06;;;;;;;1.40;1.00;;;;;;;5.74;100.00;99492.33;88931;271;22526;-74
2023/11/16 09:08:11;;;;;;;1.80;1.40;;;;;;;5.71;100.00;99493.61;88796;272;137111;-75
2023/11/16 09:10:14;;;;;;;3.30;2.80;;;;;;;5.66;100.00;99500.64;88891;273;22564;-72
2023/11/16 09:12:16;;;;;;;1.70;1.20;;;;;;;5.63;100.00;99500.40;88891;277;136495;-68
2023/11/16 09:14:18;;;;;;;3.00;0.80;;;;;;;5.62;100.00;99501.27;88496;274;22531;-71
2023/11/16 09:16:22;;;;;;;2.00;0.60;;;;;;;5.62;100.00;99495.16;88610;278;137931;-71
2023/11/16 09:18:25;;;;;;;2.80;1.10;;;;;;;5.59;100.00;99490.96;88905;277;22539;-69
2023/11/16 09:20:28;;;;;;;1.20;0.70;;;;;;;5.58;100.00;99497.37;88627;276;137407;-71
2023/11/16 09:22:33;;;;;;;0.90;0.50;;;;;;;5.58;100.00;99500.52;88533;281;25138;-69
2023/11/16 09:24:39;;;;;;;0.80;0.60;;;;;;;5.59;100.00;99501.65;88243;278;136719;-72
2023/11/16 09:26:42;;;;;;;1.40;1.20;;;;;;;5.58;100.00;99501.41;88539;275;22547;-71
2023/11/16 09:28:44;;;;;;;5.80;4.80;;;;;;;5.58;100.00;99500.34;88653;277;136583;-71
2023/11/16 09:31:02;;;;;;;4.10;2.60;;;;;;;5.55;100.00;99501.35;89010;277;22530;-69
2023/11/16 09:33:05;;;;;;;2.90;1.50;;;;;;;5.47;100.00;99498.23;88639;274;136588;-70
2023/11/16 09:35:09;;;;;;;1.40;0.70;;;;;;;5.37;100.00;99502.27;88843;277;24164;-73
2023/11/16 09:37:16;;;;;;;1.40;0.60;;;;;;;5.24;100.00;99498.89;89112;280;136357;-70
2023/11/16 09:39:17;;;;;;;0.70;0.30;;;;;;;5.16;100.00;99498.93;88852;275;22606;-72
2023/11/16 09:41:26;;;;;;;0.80;0.40;;;;;;;5.11;100.00;99500.73;88496;273;136796;-73
2023/11/16 09:43:31;;;;;;;4.50;0.60;;;;;;;5.10;100.00;99500.58;88918;273;22537;-70
2023/11/16 09:45:38;;;;;;;2.00;0.70;;;;;;;5.10;100.00;99505.30;88869;273;136380;-72
2023/11/16 09:47:45;;;;;;;0.80;0.30;;;;;;;5.08;100.00;99502.99;88739;275;22543;-69